createdAt,value
2024-01-12T00:02:21.450Z,4.30
2024-01-12T00:04:49.378Z,4.30
2024-01-12T00:07:17.346Z,4.40
2024-01-12T00:09:54.218Z,4.40
2024-01-12T00:12:25.303Z,4.30
2024-01-12T00:15:04.456Z,4.30
2024-01-12T00:17:35.404Z,4.30
2024-01-12T00:20:07.300Z,4.30
2024-01-12T00:22:38.380Z,4.20
2024-01-12T00:25:08.673Z,4.10
2024-01-12T00:27:42.675Z,4.20
2024-01-12T00:30:10.985Z,4.10
2024-01-12T00:32:40.571Z,4.00
2024-01-12T00:35:11.418Z,4.00
2024-01-12T00:37:42.296Z,3.90
2024-01-12T00:40:12.648Z,3.80
2024-01-12T00:42:40.628Z,3.70
2024-01-12T00:45:12.006Z,3.90
2024-01-12T00:47:39.961Z,4.10
2024-01-12T00:50:08.533Z,4.10
2024-01-12T00:52:39.499Z,4.20
2024-01-12T00:55:14.940Z,4.50
2024-01-12T00:57:51.717Z,4.90
2024-01-12T01:00:22.461Z,5.10
2024-01-12T01:02:53.578Z,5.70
2024-01-12T01:05:30.263Z,6.20
2024-01-12T01:08:00.713Z,6.10
2024-01-12T01:10:35.561Z,5.70
2024-01-12T01:13:11.800Z,5.30
2024-01-12T01:15:47.371Z,5.30
2024-01-12T01:18:24.358Z,5.50
2024-01-12T01:21:06.312Z,5.40
2024-01-12T01:23:34.296Z,5.30
2024-01-12T01:26:03.620Z,5.20
2024-01-12T01:28:40.138Z,5.40
2024-01-12T01:31:08.989Z,5.40
2024-01-12T01:33:37.314Z,5.50
2024-01-12T01:36:16.415Z,5.70
2024-01-12T01:38:44.550Z,6.10
2024-01-12T01:41:16.906Z,6.30
2024-01-12T01:43:47.631Z,6.60
2024-01-12T01:46:15.739Z,6.70
2024-01-12T01:48:46.471Z,6.90
2024-01-12T01:51:19.607Z,7.10
2024-01-12T01:53:50.641Z,7.20
2024-01-12T01:56:20.280Z,7.20
2024-01-12T01:58:54.533Z,7.40
2024-01-12T02:01:23.465Z,7.40
2024-01-12T02:03:55.258Z,7.40
2024-01-12T02:06:26.673Z,7.40
2024-01-12T02:08:55.097Z,7.50
2024-01-12T02:11:25.125Z,7.50
2024-01-12T02:13:53.044Z,7.40
2024-01-12T02:16:24.222Z,7.50
2024-01-12T02:18:52.196Z,7.60
2024-01-12T02:21:24.242Z,7.80
2024-01-12T02:23:52.246Z,8.00
2024-01-12T02:26:20.304Z,8.10
2024-01-12T02:28:51.106Z,8.20
2024-01-12T02:31:21.748Z,8.20
2024-01-12T02:33:52.976Z,8.30
2024-01-12T02:36:21.055Z,8.40
2024-01-12T02:38:52.067Z,8.50
2024-01-12T02:41:23.258Z,8.60
2024-01-12T02:43:54.055Z,8.70
2024-01-12T02:46:22.004Z,8.80
2024-01-12T02:48:57.812Z,8.80
2024-01-12T02:51:25.837Z,8.90
2024-01-12T02:54:00.551Z,9.00
2024-01-12T02:56:28.698Z,9.00
2024-01-12T02:59:02.153Z,8.90
2024-01-12T03:01:30.341Z,8.80
2024-01-12T03:04:07.333Z,8.70
2024-01-12T03:06:41.768Z,8.70
2024-01-12T03:09:11.453Z,8.70
2024-01-12T03:11:42.411Z,8.50
2024-01-12T03:14:10.950Z,8.50
2024-01-12T03:16:41.903Z,8.40
2024-01-12T03:19:16.057Z,8.20
2024-01-12T03:21:43.376Z,8.00
2024-01-12T03:24:12.652Z,8.00
2024-01-12T03:26:42.763Z,8.20
2024-01-12T03:29:10.697Z,8.20
2024-01-12T03:31:50.492Z,8.10
2024-01-12T03:34:24.531Z,8.10
2024-01-12T03:36:52.463Z,8.20
2024-01-12T03:39:21.724Z,8.20
2024-01-12T03:44:34.260Z,8.40
2024-01-12T03:47:04.343Z,8.40
2024-01-12T03:49:32.415Z,8.30
2024-01-12T03:52:14.829Z,8.30
2024-01-12T03:54:48.332Z,8.30
2024-01-12T03:57:16.840Z,8.10
2024-01-12T03:59:44.791Z,7.70
2024-01-12T04:02:14.240Z,7.30
2024-01-12T04:04:45.418Z,7.10
2024-01-12T04:07:13.391Z,6.70
2024-01-12T04:09:41.308Z,6.40
2024-01-12T04:12:19.545Z,6.20
2024-01-12T04:14:47.620Z,6.20
2024-01-12T04:17:24.821Z,6.10
2024-01-12T04:19:52.806Z,6.00
2024-01-12T04:22:20.747Z,6.10
2024-01-12T04:24:48.662Z,6.10
2024-01-12T04:27:21.166Z,5.90
2024-01-12T04:29:52.147Z,5.80
2024-01-12T04:32:24.674Z,5.80
2024-01-12T04:34:55.751Z,5.80
2024-01-12T04:37:23.672Z,5.70
2024-01-12T04:39:51.581Z,5.70
2024-01-12T04:42:20.846Z,5.70
2024-01-12T04:44:48.823Z,5.90
2024-01-12T04:47:19.872Z,6.20
2024-01-12T04:49:47.942Z,6.70
2024-01-12T04:52:22.245Z,6.70
2024-01-12T04:54:53.217Z,6.60
2024-01-12T04:57:22.471Z,6.80
2024-01-12T04:59:52.057Z,7.00
2024-01-12T05:02:22.798Z,7.00
2024-01-12T05:04:53.755Z,6.60
2024-01-12T05:07:21.716Z,6.40
2024-01-12T05:09:49.579Z,6.20
2024-01-12T05:12:17.545Z,6.10
2024-01-12T05:14:49.593Z,5.80
2024-01-12T05:17:19.762Z,5.60
2024-01-12T05:19:53.650Z,5.60
2024-01-12T05:22:27.626Z,5.60
2024-01-12T05:24:55.978Z,5.60
2024-01-12T05:27:23.949Z,5.60
2024-01-12T05:29:53.248Z,5.60
2024-01-12T05:32:21.218Z,5.70
2024-01-12T05:34:55.188Z,5.60
2024-01-12T05:37:23.083Z,5.50
2024-01-12T05:39:56.872Z,5.50
2024-01-12T05:42:24.731Z,5.60
2024-01-12T05:44:54.026Z,5.50
2024-01-12T05:47:24.793Z,5.40
2024-01-12T05:49:57.536Z,5.50
2024-01-12T05:52:31.688Z,5.50
2024-01-12T05:55:03.650Z,5.40
2024-01-12T05:57:35.664Z,5.40
2024-01-12T06:00:06.635Z,5.70
2024-01-12T06:02:34.571Z,5.60
2024-01-12T06:05:02.713Z,5.50
2024-01-12T06:07:33.816Z,5.60
2024-01-12T06:10:01.744Z,5.70
2024-01-12T06:12:38.136Z,5.60
2024-01-12T06:15:10.270Z,5.70
2024-01-12T06:17:38.269Z,5.70
2024-01-12T06:20:08.226Z,5.70
2024-01-12T06:22:39.063Z,5.70
2024-01-12T06:25:07.425Z,5.60
2024-01-12T06:27:35.365Z,5.50
2024-01-12T06:30:04.492Z,5.40
2024-01-12T06:32:33.895Z,5.30
2024-01-12T06:35:01.809Z,5.70
2024-01-12T06:37:29.968Z,5.80
2024-01-12T06:39:58.987Z,6.00
2024-01-12T06:42:34.105Z,6.30
2024-01-12T06:45:02.265Z,6.80
2024-01-12T06:47:30.808Z,7.10
2024-01-12T06:50:07.375Z,7.20
2024-01-12T06:52:35.552Z,6.90
2024-01-12T06:55:03.463Z,6.60
2024-01-12T06:57:31.303Z,6.30
2024-01-12T07:00:02.521Z,6.00
2024-01-12T07:02:30.610Z,5.80
2024-01-12T07:04:58.467Z,5.90
2024-01-12T07:07:27.708Z,6.00
2024-01-12T07:09:55.904Z,6.10
2024-01-12T07:12:25.746Z,6.30
2024-01-12T07:14:54.478Z,7.00
2024-01-12T07:17:25.314Z,7.40
2024-01-12T07:19:53.277Z,7.50
2024-01-12T07:22:24.295Z,7.50
2024-01-12T07:25:11.479Z,7.60
2024-01-12T07:27:44.433Z,7.50
2024-01-12T07:30:20.368Z,7.50
2024-01-12T07:32:48.497Z,7.30
2024-01-12T07:35:16.595Z,7.20
2024-01-12T07:37:45.360Z,7.80
2024-01-12T07:40:17.680Z,7.50
2024-01-12T07:42:48.651Z,7.20
2024-01-12T07:45:16.734Z,7.20
2024-01-12T07:47:44.665Z,7.80
2024-01-12T07:50:12.761Z,7.80
2024-01-12T07:52:40.688Z,7.80
2024-01-12T07:55:09.051Z,7.70
2024-01-12T07:57:38.366Z,7.50
2024-01-12T08:00:07.761Z,7.40
2024-01-12T08:02:35.907Z,7.20
2024-01-12T08:05:04.008Z,7.00
2024-01-12T08:07:31.968Z,6.70
2024-01-12T08:10:02.232Z,6.50
2024-01-12T08:12:33.445Z,6.20
2024-01-12T08:15:06.065Z,6.40
2024-01-12T08:17:40.186Z,6.40
2024-01-12T08:20:09.158Z,6.30
2024-01-12T08:22:37.082Z,6.20
2024-01-12T08:25:05.673Z,6.30
2024-01-12T08:27:34.471Z,6.30
2024-01-12T08:30:10.265Z,6.10
2024-01-12T08:32:39.936Z,5.90
2024-01-12T08:35:09.924Z,5.80
2024-01-12T08:37:38.043Z,5.70
2024-01-12T08:40:17.002Z,5.50
2024-01-12T08:42:47.749Z,5.40
2024-01-12T08:45:20.233Z,5.40
2024-01-12T08:47:50.665Z,5.40
2024-01-12T08:50:28.534Z,5.50
2024-01-12T08:52:56.538Z,5.50
2024-01-12T08:55:24.408Z,5.50
2024-01-12T08:57:53.453Z,5.70
2024-01-12T09:00:22.944Z,5.90
2024-01-12T09:02:53.772Z,6.00
2024-01-12T09:05:23.262Z,5.90
2024-01-12T09:08:05.153Z,5.80
2024-01-12T09:10:33.446Z,5.60
2024-01-12T09:13:01.347Z,5.50
2024-01-12T09:15:33.680Z,5.40
2024-01-12T09:18:02.301Z,5.30
2024-01-12T09:20:30.280Z,5.20
2024-01-12T09:23:04.526Z,5.20
2024-01-12T09:25:40.435Z,5.20
2024-01-12T09:28:08.766Z,5.20
2024-01-12T09:30:38.118Z,5.10
2024-01-12T09:33:09.008Z,5.20
2024-01-12T09:35:37.010Z,5.20
2024-01-12T09:38:05.234Z,5.20
2024-01-12T09:40:33.364Z,5.10
2024-01-12T09:43:08.404Z,5.00
2024-01-12T09:45:41.387Z,4.80
2024-01-12T09:48:10.754Z,4.60
2024-01-12T09:50:45.963Z,4.40
2024-01-12T09:53:16.948Z,4.20
2024-01-12T09:55:44.854Z,4.10
2024-01-12T09:58:19.662Z,4.00
2024-01-12T10:00:53.358Z,3.90
2024-01-12T10:03:22.203Z,3.90
2024-01-12T10:05:51.157Z,4.00
2024-01-12T10:08:19.135Z,4.00
2024-01-12T10:10:49.805Z,5.00
2024-01-12T10:13:17.694Z,5.10
2024-01-12T10:15:45.633Z,5.20
2024-01-12T10:18:15.014Z,5.50
2024-01-12T10:20:52.206Z,5.90
2024-01-12T10:23:21.715Z,6.20
2024-01-12T10:26:04.719Z,6.30
2024-01-12T10:28:42.146Z,6.30
2024-01-12T10:31:10.865Z,6.20
2024-01-12T10:33:48.016Z,6.40
2024-01-12T10:36:23.173Z,6.90
2024-01-12T10:38:52.197Z,7.20
2024-01-12T10:41:23.315Z,7.60
2024-01-12T10:43:58.534Z,7.80
2024-01-12T10:46:37.112Z,8.00
2024-01-12T10:49:10.546Z,8.30
2024-01-12T10:51:40.575Z,8.20
2024-01-12T10:54:16.746Z,7.90
2024-01-12T10:56:47.980Z,7.80
2024-01-12T10:59:23.635Z,7.50
2024-01-12T11:01:59.270Z,7.40
2024-01-12T11:04:30.988Z,7.60
2024-01-12T11:07:04.006Z,8.00
2024-01-12T11:09:35.192Z,8.30
2024-01-12T11:12:10.106Z,8.90
2024-01-12T11:14:39.080Z,9.60
2024-01-12T11:17:07.775Z,9.80
2024-01-12T11:19:37.163Z,10.20
2024-01-12T11:22:09.534Z,10.50
2024-01-12T11:24:43.882Z,10.50
2024-01-12T11:27:15.542Z,10.60
2024-01-12T11:29:47.025Z,10.60
2024-01-12T11:32:17.728Z,10.60
2024-01-12T11:34:50.164Z,10.50
2024-01-12T11:37:20.849Z,10.70
2024-01-12T11:39:56.985Z,10.90
2024-01-12T11:42:27.332Z,10.90
2024-01-12T11:45:03.451Z,11.00
2024-01-12T11:47:34.295Z,11.10
2024-01-12T11:50:07.677Z,11.40
2024-01-12T11:52:38.430Z,11.60
2024-01-12T11:55:08.258Z,11.40
2024-01-12T11:57:36.465Z,11.50
2024-01-12T12:00:10.636Z,11.20
2024-01-12T12:02:38.972Z,10.90
2024-01-12T12:05:10.430Z,10.60
2024-01-12T12:07:41.908Z,10.50
2024-01-12T12:10:10.765Z,10.40
2024-01-12T12:12:39.425Z,10.70
2024-01-12T12:15:08.946Z,10.80
2024-01-12T12:17:38.617Z,11.10
2024-01-12T12:20:12.577Z,11.30
2024-01-12T12:22:44.837Z,11.20
2024-01-12T12:25:21.111Z,11.00
2024-01-12T12:27:49.068Z,10.80
2024-01-12T12:30:21.011Z,10.80
2024-01-12T12:32:52.037Z,10.70
2024-01-12T12:35:27.731Z,10.50
2024-01-12T12:37:55.822Z,10.20
2024-01-12T12:40:26.258Z,10.00
2024-01-12T12:42:59.758Z,9.60
2024-01-12T12:45:28.549Z,9.50
2024-01-12T12:47:56.800Z,9.50
2024-01-12T12:50:32.228Z,9.40
2024-01-12T12:53:01.429Z,9.40
2024-01-12T12:55:32.300Z,9.70
2024-01-12T12:58:00.585Z,10.10
2024-01-12T13:00:28.640Z,10.30
2024-01-12T13:02:57.402Z,10.10
2024-01-12T13:05:25.645Z,10.40
2024-01-12T13:07:53.623Z,10.60
2024-01-12T13:10:25.574Z,11.20
2024-01-12T13:12:56.709Z,11.00
2024-01-12T13:15:24.623Z,10.70
2024-01-12T13:17:57.673Z,10.50
2024-01-12T13:20:25.746Z,10.50
2024-01-12T13:23:00.709Z,10.30
2024-01-12T13:25:33.312Z,10.50
2024-01-12T13:28:01.289Z,10.30
2024-01-12T13:30:41.687Z,10.20
2024-01-12T13:33:09.972Z,10.20
2024-01-12T13:35:37.993Z,10.10
2024-01-12T13:38:09.060Z,10.20
2024-01-12T13:40:40.947Z,10.20
2024-01-12T13:43:11.927Z,10.20
2024-01-12T13:45:42.927Z,10.50
2024-01-12T13:48:16.763Z,10.50
2024-01-12T13:50:44.919Z,10.60
2024-01-12T13:53:12.858Z,10.90
2024-01-12T13:55:44.685Z,11.00
2024-01-12T13:58:15.073Z,11.10
2024-01-12T14:00:45.743Z,10.90
2024-01-12T14:03:14.100Z,10.90
2024-01-12T14:06:03.960Z,10.70
2024-01-12T14:08:33.495Z,10.70
2024-01-12T14:11:08.235Z,10.70
2024-01-12T14:13:38.965Z,10.70
2024-01-12T14:16:09.846Z,10.70
2024-01-12T14:18:41.064Z,10.70
2024-01-12T14:21:10.282Z,10.40
2024-01-12T14:23:38.259Z,10.20
2024-01-12T14:26:08.023Z,10.10
2024-01-12T14:28:36.220Z,9.90
2024-01-12T14:31:05.322Z,10.10
2024-01-12T14:33:34.981Z,10.20
2024-01-12T14:36:06.805Z,10.80
2024-01-12T14:38:35.124Z,10.60
2024-01-12T14:41:04.438Z,10.50
2024-01-12T14:43:37.090Z,10.40
2024-01-12T14:46:05.827Z,10.40
2024-01-12T14:48:34.302Z,10.60
2024-01-12T14:51:02.424Z,10.70
2024-01-12T14:53:31.951Z,11.00
2024-01-12T14:56:00.093Z,11.10
2024-01-12T14:58:28.107Z,10.90
2024-01-12T15:01:00.723Z,10.80
2024-01-12T15:03:28.685Z,10.90
2024-01-12T15:06:21.004Z,10.70
2024-01-12T15:08:52.398Z,10.90
2024-01-12T15:11:21.031Z,11.20
2024-01-12T15:13:51.846Z,11.50
2024-01-12T15:16:21.181Z,11.60
2024-01-12T15:18:55.269Z,11.50
2024-01-12T15:21:23.343Z,11.30
2024-01-12T15:23:51.289Z,11.20
2024-01-12T15:26:24.233Z,11.30
2024-01-12T15:28:52.187Z,11.00
2024-01-12T15:31:24.569Z,11.10
2024-01-12T15:33:52.714Z,10.90
2024-01-12T15:36:21.045Z,10.90
2024-01-12T15:38:51.921Z,11.00
2024-01-12T15:41:28.746Z,11.00
2024-01-12T15:43:56.677Z,11.00
2024-01-12T15:46:25.915Z,10.90
2024-01-12T15:48:53.907Z,10.70
2024-01-12T15:51:21.906Z,10.50
2024-01-12T15:54:08.824Z,10.30
2024-01-12T15:56:37.347Z,10.40
2024-01-12T15:59:05.501Z,10.10
2024-01-12T16:01:37.620Z,9.90
2024-01-12T16:04:11.933Z,10.30
2024-01-12T16:06:39.946Z,10.80
2024-01-12T16:09:09.167Z,10.60
2024-01-12T16:11:37.150Z,10.40
2024-01-12T16:14:07.901Z,10.30
2024-01-12T16:16:42.641Z,9.80
2024-01-12T16:19:15.743Z,9.50
2024-01-12T16:21:44.199Z,9.30
2024-01-12T16:24:26.026Z,9.20
2024-01-12T16:26:53.959Z,9.00
2024-01-12T16:29:21.991Z,9.00
2024-01-12T16:31:53.986Z,9.10
2024-01-12T16:34:27.982Z,9.60
2024-01-12T16:37:02.294Z,9.90
2024-01-12T16:39:34.329Z,10.10
2024-01-12T16:42:02.287Z,10.00
2024-01-12T16:44:30.217Z,10.10
2024-01-12T16:47:15.531Z,10.20
2024-01-12T16:49:43.459Z,10.30
2024-01-12T16:52:17.471Z,10.30
2024-01-12T16:54:55.629Z,10.20
2024-01-12T16:57:42.568Z,10.30
2024-01-12T17:00:11.345Z,10.50
2024-01-12T17:02:41.663Z,10.60
2024-01-12T17:05:15.650Z,10.40
2024-01-12T17:07:43.545Z,10.40
2024-01-12T17:10:28.144Z,10.10
2024-01-12T17:13:01.907Z,9.70
2024-01-12T17:15:36.979Z,9.50
2024-01-12T17:18:16.009Z,9.50
2024-01-12T17:20:49.899Z,9.40
2024-01-12T17:23:17.871Z,9.40
2024-01-12T17:26:17.332Z,9.70
2024-01-12T17:28:45.228Z,9.90
2024-01-12T17:31:13.452Z,10.30
2024-01-12T17:33:42.942Z,10.30
2024-01-12T17:36:19.564Z,10.40
2024-01-12T17:38:50.213Z,10.50
2024-01-12T17:41:27.339Z,10.40
2024-01-12T17:44:01.166Z,10.50
2024-01-12T17:46:31.931Z,10.30
2024-01-12T17:49:01.367Z,10.50
2024-01-12T17:51:32.303Z,10.50
2024-01-12T17:54:06.512Z,10.50
2024-01-12T17:56:38.750Z,10.40
2024-01-12T17:59:12.514Z,10.20
2024-01-12T18:01:43.875Z,10.10
2024-01-12T18:04:14.574Z,9.70
2024-01-12T18:06:49.823Z,9.50
2024-01-12T18:09:19.988Z,9.40
2024-01-12T18:11:53.175Z,9.40
2024-01-12T18:14:23.243Z,9.30
2024-01-12T18:16:51.124Z,9.30
2024-01-12T18:19:20.983Z,8.90
2024-01-12T18:21:49.246Z,8.60
2024-01-12T18:24:17.192Z,8.80
2024-01-12T18:26:50.610Z,8.80
2024-01-12T18:29:27.495Z,8.60
2024-01-12T18:31:57.483Z,8.50
2024-01-12T18:37:29.083Z,8.60
2024-01-12T18:40:07.591Z,8.40
2024-01-12T18:42:38.341Z,8.40
2024-01-12T18:45:10.318Z,8.30
2024-01-12T18:47:38.459Z,8.30
2024-01-12T18:50:08.497Z,8.30
2024-01-12T18:52:36.422Z,8.30
2024-01-12T18:55:04.543Z,8.20
2024-01-12T18:57:35.532Z,8.20
2024-01-12T19:00:10.532Z,8.00
2024-01-12T19:02:41.372Z,8.00
2024-01-12T19:05:13.198Z,8.00
2024-01-12T19:07:41.238Z,8.10
2024-01-12T19:10:10.472Z,8.30
2024-01-12T19:12:38.379Z,8.50
2024-01-12T19:15:13.718Z,8.90
2024-01-12T19:17:44.785Z,9.40
2024-01-12T19:20:16.755Z,9.90
2024-01-12T19:22:44.736Z,10.10
2024-01-12T19:25:15.796Z,10.20
2024-01-12T19:27:43.722Z,10.10
2024-01-12T19:30:17.668Z,10.00
2024-01-12T19:32:45.784Z,10.20
2024-01-12T19:35:15.102Z,10.00
2024-01-12T19:37:43.018Z,9.80
2024-01-12T19:40:14.398Z,9.60
2024-01-12T19:42:51.253Z,9.60
2024-01-12T19:45:29.759Z,9.50
2024-01-12T19:48:17.881Z,9.40
2024-01-12T19:50:52.594Z,9.30
2024-01-12T19:53:20.605Z,9.20
2024-01-12T19:55:48.474Z,9.60
2024-01-12T19:58:17.195Z,9.70
2024-01-12T20:00:45.139Z,10.10
2024-01-12T20:03:16.049Z,9.90
2024-01-12T20:05:46.839Z,9.80
2024-01-12T20:08:16.132Z,10.00
2024-01-12T20:10:50.185Z,10.20
2024-01-12T20:13:18.465Z,10.00
2024-01-12T20:15:46.342Z,10.00
2024-01-12T20:18:17.568Z,9.90
2024-01-12T20:20:48.643Z,9.60
2024-01-12T20:23:17.953Z,9.50
2024-01-12T20:25:45.850Z,9.50
2024-01-12T20:28:13.788Z,9.20
2024-01-12T20:30:41.731Z,9.00
2024-01-12T20:33:09.771Z,9.40
2024-01-12T20:35:41.264Z,9.70
2024-01-12T20:38:09.166Z,9.70
2024-01-12T20:40:39.522Z,9.80
2024-01-12T20:43:12.382Z,9.90
2024-01-12T20:45:47.530Z,10.10
2024-01-12T20:48:15.502Z,10.10
2024-01-12T20:50:43.423Z,10.10
2024-01-12T20:53:13.492Z,10.10
2024-01-12T20:55:42.751Z,10.00
2024-01-12T20:58:13.558Z,10.10
2024-01-12T21:00:44.496Z,10.40
2024-01-12T21:03:13.051Z,11.10
2024-01-12T21:05:49.809Z,11.10
2024-01-12T21:08:17.800Z,11.20
2024-01-12T21:10:50.091Z,11.30
2024-01-12T21:13:20.778Z,11.20
2024-01-12T21:15:51.683Z,11.10
2024-01-12T21:18:20.084Z,11.00
2024-01-12T21:20:51.258Z,11.10
2024-01-12T21:23:19.516Z,11.20
2024-01-12T21:25:52.005Z,11.10
2024-01-12T21:28:22.217Z,11.10
2024-01-12T21:30:50.246Z,11.10
2024-01-12T21:33:18.371Z,11.30
2024-01-12T21:35:49.498Z,11.50
2024-01-12T21:38:19.618Z,11.60
2024-01-12T21:40:52.452Z,11.50
2024-01-12T21:43:20.580Z,11.40
2024-01-12T21:45:48.638Z,11.50
2024-01-12T21:48:16.683Z,11.20
2024-01-12T21:50:52.258Z,11.40
2024-01-12T21:53:20.142Z,11.30
2024-01-12T21:55:50.148Z,11.00
2024-01-12T21:58:19.409Z,10.80
2024-01-12T22:00:47.394Z,10.40
2024-01-12T22:03:15.415Z,10.30
2024-01-12T22:05:43.490Z,10.20
2024-01-12T22:08:11.416Z,10.00
2024-01-12T22:10:39.284Z,10.10
2024-01-12T22:13:16.356Z,10.10
2024-01-12T22:15:47.935Z,10.10
2024-01-12T22:18:15.933Z,10.20
2024-01-12T22:20:43.975Z,10.10
2024-01-12T22:23:11.901Z,10.20
2024-01-12T22:25:43.581Z,10.10
2024-01-12T22:28:14.372Z,10.00
2024-01-12T22:30:44.602Z,9.80
2024-01-12T22:33:18.311Z,10.10
2024-01-12T22:35:46.185Z,10.40
2024-01-12T22:38:16.464Z,10.40
2024-01-12T22:40:44.301Z,10.50
2024-01-12T22:43:12.291Z,10.40
2024-01-12T22:45:43.054Z,10.50
2024-01-12T22:48:15.435Z,10.60
2024-01-12T22:50:51.915Z,10.70
2024-01-12T22:53:19.817Z,10.60
2024-01-12T22:55:53.677Z,10.50
2024-01-12T22:58:21.577Z,10.20
2024-01-12T23:00:50.414Z,10.20
2024-01-12T23:03:22.678Z,10.30
2024-01-12T23:05:50.831Z,10.40
2024-01-12T23:08:18.780Z,10.20
2024-01-12T23:10:46.715Z,10.20
2024-01-12T23:13:20.076Z,10.20
2024-01-12T23:15:50.794Z,10.50
2024-01-12T23:18:21.221Z,10.60
2024-01-12T23:20:53.644Z,10.60
2024-01-12T23:23:21.640Z,10.50
2024-01-12T23:25:49.555Z,10.50
2024-01-12T23:28:23.326Z,10.40
2024-01-12T23:30:51.299Z,10.30
2024-01-12T23:33:19.452Z,10.10
2024-01-12T23:35:47.530Z,10.10
2024-01-12T23:38:28.542Z,9.90
2024-01-12T23:41:05.649Z,9.80
2024-01-12T23:43:33.736Z,9.60
2024-01-12T23:46:01.698Z,9.40
2024-01-12T23:48:34.753Z,9.40
2024-01-12T23:51:06.207Z,9.40
2024-01-12T23:53:38.032Z,9.30
2024-01-12T23:56:14.832Z,9.20
2024-01-12T23:58:45.447Z,9.30
